sensor_id;sensor_type;location;lat;lon;timestamp;temperature;humidity
5172;DHT22;2605;49.770;9.868;2023-08-06T00:01:32;14.90;99.90
5172;DHT22;2605;49.770;9.868;2023-08-06T00:03:57;14.90;99.90
5172;DHT22;2605;49.770;9.868;2023-08-06T00:06:24;14.90;99.90
5172;DHT22;2605;49.770;9.868;2023-08-06T00:08:49;14.90;99.90
5172;DHT22;2605;49.770;9.868;2023-08-06T00:11:15;14.90;99.90
5172;DHT22;2605;49.770;9.868;2023-08-06T00:13:40;14.90;99.90
5172;DHT22;2605;49.770;9.868;2023-08-06T00:16:13;14.80;99.90
5172;DHT22;2605;49.770;9.868;2023-08-06T00:18:39;14.90;99.90
5172;DHT22;2605;49.770;9.868;2023-08-06T00:21:05;14.80;99.90
5172;DHT22;2605;49.770;9.868;2023-08-06T00:23:31;14.80;99.90
5172;DHT22;2605;49.770;9.868;2023-08-06T00:25:57;14.70;99.90
5172;DHT22;2605;49.770;9.868;2023-08-06T00:28:23;14.70;99.90
5172;DHT22;2605;49.770;9.868;2023-08-06T00:30:55;14.70;99.90
5172;DHT22;2605;49.770;9.868;2023-08-06T00:33:21;14.60;99.90
5172;DHT22;2605;49.770;9.868;2023-08-06T00:35:47;14.60;99.90
5172;DHT22;2605;49.770;9.868;2023-08-06T00:38:12;14.50;99.90
5172;DHT22;2605;49.770;9.868;2023-08-06T00:40:38;14.40;99.90
5172;DHT22;2605;49.770;9.868;2023-08-06T00:43:03;14.40;99.90
5172;DHT22;2605;49.770;9.868;2023-08-06T00:45:29;14.40;99.90
5172;DHT22;2605;49.770;9.868;2023-08-06T00:47:58;14.40;99.90
5172;DHT22;2605;49.770;9.868;2023-08-06T00:50:25;14.30;99.90
5172;DHT22;2605;49.770;9.868;2023-08-06T00:52:51;14.30;99.90
5172;DHT22;2605;49.770;9.868;2023-08-06T00:55:17;14.30;99.90
5172;DHT22;2605;49.770;9.868;2023-08-06T00:57:45;14.30;99.90
5172;DHT22;2605;49.770;9.868;2023-08-06T01:00:11;14.20;99.90
5172;DHT22;2605;49.770;9.868;2023-08-06T01:02:37;14.20;99.90
5172;DHT22;2605;49.770;9.868;2023-08-06T01:05:03;14.20;99.90
5172;DHT22;2605;49.770;9.868;2023-08-06T01:07:43;14.20;99.90
5172;DHT22;2605;49.770;9.868;2023-08-06T01:12:48;14.20;99.90
5172;DHT22;2605;49.770;9.868;2023-08-06T01:15:29;14.30;99.90
5172;DHT22;2605;49.770;9.868;2023-08-06T01:17:55;14.30;99.90
5172;DHT22;2605;49.770;9.868;2023-08-06T01:20:21;14.30;99.90
5172;DHT22;2605;49.770;9.868;2023-08-06T01:22:46;14.30;99.90
5172;DHT22;2605;49.770;9.868;2023-08-06T01:25:15;14.30;99.90
5172;DHT22;2605;49.770;9.868;2023-08-06T01:27:51;14.30;99.90
5172;DHT22;2605;49.770;9.868;2023-08-06T01:30:30;14.30;99.90
5172;DHT22;2605;49.770;9.868;2023-08-06T01:33:04;14.30;99.90
5172;DHT22;2605;49.770;9.868;2023-08-06T01:35:31;14.30;99.90
5172;DHT22;2605;49.770;9.868;2023-08-06T01:37:58;14.30;99.90
5172;DHT22;2605;49.770;9.868;2023-08-06T01:40:26;14.20;99.90
5172;DHT22;2605;49.770;9.868;2023-08-06T01:42:53;14.20;99.90
5172;DHT22;2605;49.770;9.868;2023-08-06T01:45:19;14.10;99.90
5172;DHT22;2605;49.770;9.868;2023-08-06T01:47:44;14.10;99.90
5172;DHT22;2605;49.770;9.868;2023-08-06T01:50:10;14.00;99.90
5172;DHT22;2605;49.770;9.868;2023-08-06T01:52:35;14.00;99.90
5172;DHT22;2605;49.770;9.868;2023-08-06T01:55:01;13.90;99.90
5172;DHT22;2605;49.770;9.868;2023-08-06T01:57:29;13.90;99.90
5172;DHT22;2605;49.770;9.868;2023-08-06T01:59:55;13.90;99.90
5172;DHT22;2605;49.770;9.868;2023-08-06T02:02:20;13.70;99.90
5172;DHT22;2605;49.770;9.868;2023-08-06T02:04:46;13.60;99.90
5172;DHT22;2605;49.770;9.868;2023-08-06T02:07:11;13.60;99.90
5172;DHT22;2605;49.770;9.868;2023-08-06T02:09:37;13.50;99.90
5172;DHT22;2605;49.770;9.868;2023-08-06T02:12:02;13.50;99.90
5172;DHT22;2605;49.770;9.868;2023-08-06T02:14:28;13.40;99.90
5172;DHT22;2605;49.770;9.868;2023-08-06T02:16:53;13.40;99.90
5172;DHT22;2605;49.770;9.868;2023-08-06T02:19:19;13.30;99.90
5172;DHT22;2605;49.770;9.868;2023-08-06T02:21:44;13.30;99.90
5172;DHT22;2605;49.770;9.868;2023-08-06T02:24:10;13.20;99.90
5172;DHT22;2605;49.770;9.868;2023-08-06T02:26:36;13.20;99.90
5172;DHT22;2605;49.770;9.868;2023-08-06T02:29:01;13.20;99.90
5172;DHT22;2605;49.770;9.868;2023-08-06T02:31:26;13.20;99.90
5172;DHT22;2605;49.770;9.868;2023-08-06T02:33:52;13.20;99.90
5172;DHT22;2605;49.770;9.868;2023-08-06T02:36:19;13.30;99.90
5172;DHT22;2605;49.770;9.868;2023-08-06T02:38:44;13.30;99.90
5172;DHT22;2605;49.770;9.868;2023-08-06T02:41:10;13.30;99.90
5172;DHT22;2605;49.770;9.868;2023-08-06T02:43:35;13.30;99.90
5172;DHT22;2605;49.770;9.868;2023-08-06T02:46:01;13.30;99.90
5172;DHT22;2605;49.770;9.868;2023-08-06T02:48:27;13.40;99.90
5172;DHT22;2605;49.770;9.868;2023-08-06T02:50:52;13.40;99.90
5172;DHT22;2605;49.770;9.868;2023-08-06T02:53:18;13.50;99.90
5172;DHT22;2605;49.770;9.868;2023-08-06T02:55:47;13.50;99.90
5172;DHT22;2605;49.770;9.868;2023-08-06T02:58:14;13.60;99.90
5172;DHT22;2605;49.770;9.868;2023-08-06T03:00:39;13.60;99.90
5172;DHT22;2605;49.770;9.868;2023-08-06T03:03:05;13.70;99.90
5172;DHT22;2605;49.770;9.868;2023-08-06T03:05:30;13.70;99.90
5172;DHT22;2605;49.770;9.868;2023-08-06T03:07:56;13.80;99.90
5172;DHT22;2605;49.770;9.868;2023-08-06T03:10:21;13.80;99.90
5172;DHT22;2605;49.770;9.868;2023-08-06T03:12:47;13.80;99.90
5172;DHT22;2605;49.770;9.868;2023-08-06T03:15:12;13.80;99.90
5172;DHT22;2605;49.770;9.868;2023-08-06T03:17:38;13.80;99.90
5172;DHT22;2605;49.770;9.868;2023-08-06T03:20:04;13.80;99.90
5172;DHT22;2605;49.770;9.868;2023-08-06T03:22:30;13.80;99.90
5172;DHT22;2605;49.770;9.868;2023-08-06T03:24:55;13.80;99.90
5172;DHT22;2605;49.770;9.868;2023-08-06T03:27:21;13.80;99.90
5172;DHT22;2605;49.770;9.868;2023-08-06T03:29:51;13.80;99.90
5172;DHT22;2605;49.770;9.868;2023-08-06T03:32:17;13.80;99.90
5172;DHT22;2605;49.770;9.868;2023-08-06T03:34:42;13.80;99.90
5172;DHT22;2605;49.770;9.868;2023-08-06T03:37:08;13.80;99.90
5172;DHT22;2605;49.770;9.868;2023-08-06T03:39:33;13.80;99.90
5172;DHT22;2605;49.770;9.868;2023-08-06T03:41:59;13.80;99.90
5172;DHT22;2605;49.770;9.868;2023-08-06T03:44:24;13.80;99.90
5172;DHT22;2605;49.770;9.868;2023-08-06T03:46:50;13.70;99.90
5172;DHT22;2605;49.770;9.868;2023-08-06T03:49:15;13.70;99.90
5172;DHT22;2605;49.770;9.868;2023-08-06T03:51:44;13.70;99.90
5172;DHT22;2605;49.770;9.868;2023-08-06T03:54:09;13.70;99.90
5172;DHT22;2605;49.770;9.868;2023-08-06T03:56:35;13.70;99.90
5172;DHT22;2605;49.770;9.868;2023-08-06T03:59:01;13.60;99.90
5172;DHT22;2605;49.770;9.868;2023-08-06T04:01:26;13.60;99.90
5172;DHT22;2605;49.770;9.868;2023-08-06T04:03:52;13.60;99.90
5172;DHT22;2605;49.770;9.868;2023-08-06T04:06:17;13.60;99.90
5172;DHT22;2605;49.770;9.868;2023-08-06T04:08:43;13.60;99.90
5172;DHT22;2605;49.770;9.868;2023-08-06T04:11:08;13.50;99.90
5172;DHT22;2605;49.770;9.868;2023-08-06T04:13:34;13.40;99.90
5172;DHT22;2605;49.770;9.868;2023-08-06T04:16:03;13.40;99.90
5172;DHT22;2605;49.770;9.868;2023-08-06T04:18:28;13.40;99.90
5172;DHT22;2605;49.770;9.868;2023-08-06T04:20:54;13.40;99.90
5172;DHT22;2605;49.770;9.868;2023-08-06T04:23:20;13.40;99.90
5172;DHT22;2605;49.770;9.868;2023-08-06T04:25:46;13.40;99.90
5172;DHT22;2605;49.770;9.868;2023-08-06T04:28:12;13.40;99.90
5172;DHT22;2605;49.770;9.868;2023-08-06T04:30:38;13.50;99.90
5172;DHT22;2605;49.770;9.868;2023-08-06T04:33:03;13.50;99.90
5172;DHT22;2605;49.770;9.868;2023-08-06T04:35:29;13.60;99.90
5172;DHT22;2605;49.770;9.868;2023-08-06T04:37:54;13.70;99.90
5172;DHT22;2605;49.770;9.868;2023-08-06T04:40:20;13.80;99.90
5172;DHT22;2605;49.770;9.868;2023-08-06T04:42:45;13.80;99.90
5172;DHT22;2605;49.770;9.868;2023-08-06T04:45:11;14.00;99.90
5172;DHT22;2605;49.770;9.868;2023-08-06T04:47:36;14.00;99.90
5172;DHT22;2605;49.770;9.868;2023-08-06T04:50:05;14.00;99.90
5172;DHT22;2605;49.770;9.868;2023-08-06T04:52:30;14.10;99.90
5172;DHT22;2605;49.770;9.868;2023-08-06T04:54:57;14.10;99.90
5172;DHT22;2605;49.770;9.868;2023-08-06T04:57:23;14.20;99.90
5172;DHT22;2605;49.770;9.868;2023-08-06T04:59:48;14.30;99.90
5172;DHT22;2605;49.770;9.868;2023-08-06T05:02:14;14.40;99.90
5172;DHT22;2605;49.770;9.868;2023-08-06T05:04:40;14.50;99.90
5172;DHT22;2605;49.770;9.868;2023-08-06T05:07:06;14.60;99.90
5172;DHT22;2605;49.770;9.868;2023-08-06T05:09:31;14.60;99.90
5172;DHT22;2605;49.770;9.868;2023-08-06T05:11:57;14.70;99.90
5172;DHT22;2605;49.770;9.868;2023-08-06T05:14:22;14.70;99.90
5172;DHT22;2605;49.770;9.868;2023-08-06T05:16:48;14.70;99.90
5172;DHT22;2605;49.770;9.868;2023-08-06T05:19:14;14.80;99.90
5172;DHT22;2605;49.770;9.868;2023-08-06T05:21:39;14.70;99.90
5172;DHT22;2605;49.770;9.868;2023-08-06T05:24:05;14.60;99.90
5172;DHT22;2605;49.770;9.868;2023-08-06T05:26:30;14.60;99.90
5172;DHT22;2605;49.770;9.868;2023-08-06T05:28:56;14.70;99.90
5172;DHT22;2605;49.770;9.868;2023-08-06T05:31:21;14.70;99.90
5172;DHT22;2605;49.770;9.868;2023-08-06T05:33:47;14.80;99.90
5172;DHT22;2605;49.770;9.868;2023-08-06T05:36:12;14.90;99.90
5172;DHT22;2605;49.770;9.868;2023-08-06T05:38:38;14.90;99.90
5172;DHT22;2605;49.770;9.868;2023-08-06T05:41:04;15.10;99.90
5172;DHT22;2605;49.770;9.868;2023-08-06T05:43:29;15.30;99.90
5172;DHT22;2605;49.770;9.868;2023-08-06T05:45:56;15.50;99.90
5172;DHT22;2605;49.770;9.868;2023-08-06T05:48:21;15.50;99.90
5172;DHT22;2605;49.770;9.868;2023-08-06T05:50:52;15.60;99.90
5172;DHT22;2605;49.770;9.868;2023-08-06T05:53:18;15.70;99.90
5172;DHT22;2605;49.770;9.868;2023-08-06T05:55:43;15.70;99.90
5172;DHT22;2605;49.770;9.868;2023-08-06T05:58:10;15.60;99.90
5172;DHT22;2605;49.770;9.868;2023-08-06T06:00:35;15.40;99.90
5172;DHT22;2605;49.770;9.868;2023-08-06T06:03:01;15.40;99.90
5172;DHT22;2605;49.770;9.868;2023-08-06T06:05:27;15.40;99.90
5172;DHT22;2605;49.770;9.868;2023-08-06T06:07:53;15.40;99.90
5172;DHT22;2605;49.770;9.868;2023-08-06T06:10:18;15.10;99.90
5172;DHT22;2605;49.770;9.868;2023-08-06T06:12:44;15.10;99.90
5172;DHT22;2605;49.770;9.868;2023-08-06T06:15:10;15.00;99.90
5172;DHT22;2605;49.770;9.868;2023-08-06T06:17:35;14.90;99.90
5172;DHT22;2605;49.770;9.868;2023-08-06T06:20:01;14.90;99.90
5172;DHT22;2605;49.770;9.868;2023-08-06T06:22:26;15.10;99.90
5172;DHT22;2605;49.770;9.868;2023-08-06T06:24:52;15.20;99.90
5172;DHT22;2605;49.770;9.868;2023-08-06T06:27:17;15.30;99.90
5172;DHT22;2605;49.770;9.868;2023-08-06T06:29:43;15.30;99.90
5172;DHT22;2605;49.770;9.868;2023-08-06T06:32:08;15.30;99.90
5172;DHT22;2605;49.770;9.868;2023-08-06T06:34:34;15.40;99.90
5172;DHT22;2605;49.770;9.868;2023-08-06T06:37:00;15.50;99.90
5172;DHT22;2605;49.770;9.868;2023-08-06T06:39:25;15.30;99.90
5172;DHT22;2605;49.770;9.868;2023-08-06T06:41:50;15.20;99.90
5172;DHT22;2605;49.770;9.868;2023-08-06T06:44:16;15.20;99.90
5172;DHT22;2605;49.770;9.868;2023-08-06T06:46:41;15.20;99.90
5172;DHT22;2605;49.770;9.868;2023-08-06T06:49:10;15.30;99.90
5172;DHT22;2605;49.770;9.868;2023-08-06T06:51:35;15.30;99.90
5172;DHT22;2605;49.770;9.868;2023-08-06T06:54:01;15.40;99.90
5172;DHT22;2605;49.770;9.868;2023-08-06T06:56:27;15.50;99.90
5172;DHT22;2605;49.770;9.868;2023-08-06T06:58:52;15.50;99.90
5172;DHT22;2605;49.770;9.868;2023-08-06T07:01:18;15.50;99.90
5172;DHT22;2605;49.770;9.868;2023-08-06T07:03:43;15.60;99.90
5172;DHT22;2605;49.770;9.868;2023-08-06T07:06:11;15.60;99.90
5172;DHT22;2605;49.770;9.868;2023-08-06T07:08:38;15.70;99.90
5172;DHT22;2605;49.770;9.868;2023-08-06T07:11:04;15.70;99.90
5172;DHT22;2605;49.770;9.868;2023-08-06T07:13:30;15.70;99.90
5172;DHT22;2605;49.770;9.868;2023-08-06T07:15:56;15.80;99.90
5172;DHT22;2605;49.770;9.868;2023-08-06T07:18:22;16.00;99.90
5172;DHT22;2605;49.770;9.868;2023-08-06T07:20:51;16.00;99.90
5172;DHT22;2605;49.770;9.868;2023-08-06T07:23:19;16.10;99.90
5172;DHT22;2605;49.770;9.868;2023-08-06T07:25:46;16.10;99.90
5172;DHT22;2605;49.770;9.868;2023-08-06T07:28:12;16.40;99.90
5172;DHT22;2605;49.770;9.868;2023-08-06T07:30:42;16.60;99.90
5172;DHT22;2605;49.770;9.868;2023-08-06T07:33:07;16.80;99.90
5172;DHT22;2605;49.770;9.868;2023-08-06T07:35:36;16.90;99.90
5172;DHT22;2605;49.770;9.868;2023-08-06T07:38:02;16.90;99.90
5172;DHT22;2605;49.770;9.868;2023-08-06T07:40:28;17.00;99.90
5172;DHT22;2605;49.770;9.868;2023-08-06T07:42:54;16.90;99.90
5172;DHT22;2605;49.770;9.868;2023-08-06T07:45:19;17.00;99.90
5172;DHT22;2605;49.770;9.868;2023-08-06T07:47:45;17.00;99.90
5172;DHT22;2605;49.770;9.868;2023-08-06T07:50:10;16.70;99.90
5172;DHT22;2605;49.770;9.868;2023-08-06T07:52:36;16.70;99.90
5172;DHT22;2605;49.770;9.868;2023-08-06T07:55:02;16.80;99.90
5172;DHT22;2605;49.770;9.868;2023-08-06T07:57:31;16.90;99.90
5172;DHT22;2605;49.770;9.868;2023-08-06T07:59:56;16.70;99.90
5172;DHT22;2605;49.770;9.868;2023-08-06T08:02:22;16.40;99.90
5172;DHT22;2605;49.770;9.868;2023-08-06T08:04:47;16.20;99.90
5172;DHT22;2605;49.770;9.868;2023-08-06T08:07:16;16.10;99.90
5172;DHT22;2605;49.770;9.868;2023-08-06T08:09:42;16.00;99.90
5172;DHT22;2605;49.770;9.868;2023-08-06T08:12:08;16.00;99.90
5172;DHT22;2605;49.770;9.868;2023-08-06T08:14:33;15.60;99.90
5172;DHT22;2605;49.770;9.868;2023-08-06T08:17:05;15.40;99.90
5172;DHT22;2605;49.770;9.868;2023-08-06T08:19:33;15.10;99.90
5172;DHT22;2605;49.770;9.868;2023-08-06T08:21:59;15.10;99.90
5172;DHT22;2605;49.770;9.868;2023-08-06T08:24:25;15.30;99.90
5172;DHT22;2605;49.770;9.868;2023-08-06T08:26:51;15.30;99.90
5172;DHT22;2605;49.770;9.868;2023-08-06T08:29:17;15.50;99.90
5172;DHT22;2605;49.770;9.868;2023-08-06T08:31:43;15.60;99.90
5172;DHT22;2605;49.770;9.868;2023-08-06T08:34:09;15.60;99.90
5172;DHT22;2605;49.770;9.868;2023-08-06T08:36:35;15.60;99.90
5172;DHT22;2605;49.770;9.868;2023-08-06T08:39:00;15.50;99.90
5172;DHT22;2605;49.770;9.868;2023-08-06T08:41:30;15.70;99.90
5172;DHT22;2605;49.770;9.868;2023-08-06T08:44:00;15.80;99.90
5172;DHT22;2605;49.770;9.868;2023-08-06T08:46:27;16.00;99.90
5172;DHT22;2605;49.770;9.868;2023-08-06T08:48:55;15.80;99.90
5172;DHT22;2605;49.770;9.868;2023-08-06T08:51:22;15.90;99.90
5172;DHT22;2605;49.770;9.868;2023-08-06T08:53:49;16.20;99.90
5172;DHT22;2605;49.770;9.868;2023-08-06T08:56:17;16.10;99.90
5172;DHT22;2605;49.770;9.868;2023-08-06T08:58:44;16.20;99.90
5172;DHT22;2605;49.770;9.868;2023-08-06T09:01:13;16.10;99.90
5172;DHT22;2605;49.770;9.868;2023-08-06T09:03:40;16.30;99.90
5172;DHT22;2605;49.770;9.868;2023-08-06T09:06:06;16.50;99.90
5172;DHT22;2605;49.770;9.868;2023-08-06T09:08:36;16.70;99.90
5172;DHT22;2605;49.770;9.868;2023-08-06T09:11:04;16.70;99.90
5172;DHT22;2605;49.770;9.868;2023-08-06T09:13:37;16.90;99.90
5172;DHT22;2605;49.770;9.868;2023-08-06T09:16:03;16.90;99.90
5172;DHT22;2605;49.770;9.868;2023-08-06T09:18:29;17.10;99.90
5172;DHT22;2605;49.770;9.868;2023-08-06T09:20:56;17.10;99.90
5172;DHT22;2605;49.770;9.868;2023-08-06T09:23:28;16.90;99.90
5172;DHT22;2605;49.770;9.868;2023-08-06T09:25:55;17.20;99.90
5172;DHT22;2605;49.770;9.868;2023-08-06T09:28:21;17.20;99.90
5172;DHT22;2605;49.770;9.868;2023-08-06T09:30:47;17.10;99.90
5172;DHT22;2605;49.770;9.868;2023-08-06T09:33:18;17.00;99.90
5172;DHT22;2605;49.770;9.868;2023-08-06T09:35:45;17.20;99.90
5172;DHT22;2605;49.770;9.868;2023-08-06T09:38:10;17.50;99.90
5172;DHT22;2605;49.770;9.868;2023-08-06T09:40:37;17.70;99.90
5172;DHT22;2605;49.770;9.868;2023-08-06T09:43:03;17.70;99.90
5172;DHT22;2605;49.770;9.868;2023-08-06T09:45:36;17.40;99.90
5172;DHT22;2605;49.770;9.868;2023-08-06T09:48:09;17.40;99.90
5172;DHT22;2605;49.770;9.868;2023-08-06T09:50:36;17.70;99.90
5172;DHT22;2605;49.770;9.868;2023-08-06T09:53:04;17.90;99.90
5172;DHT22;2605;49.770;9.868;2023-08-06T09:55:34;18.30;99.90
5172;DHT22;2605;49.770;9.868;2023-08-06T09:58:00;18.50;99.90
5172;DHT22;2605;49.770;9.868;2023-08-06T10:00:26;18.30;99.90
5172;DHT22;2605;49.770;9.868;2023-08-06T10:02:53;18.20;99.90
5172;DHT22;2605;49.770;9.868;2023-08-06T10:05:22;18.00;99.90
5172;DHT22;2605;49.770;9.868;2023-08-06T10:07:48;17.70;99.90
5172;DHT22;2605;49.770;9.868;2023-08-06T10:10:16;17.80;99.90
5172;DHT22;2605;49.770;9.868;2023-08-06T10:12:46;17.20;99.90
5172;DHT22;2605;49.770;9.868;2023-08-06T10:15:16;17.10;99.90
5172;DHT22;2605;49.770;9.868;2023-08-06T10:17:43;17.00;99.90
5172;DHT22;2605;49.770;9.868;2023-08-06T10:20:11;16.80;99.90
5172;DHT22;2605;49.770;9.868;2023-08-06T10:22:42;17.00;99.90
5172;DHT22;2605;49.770;9.868;2023-08-06T10:25:08;17.20;99.90
5172;DHT22;2605;49.770;9.868;2023-08-06T10:27:53;17.30;99.90
5172;DHT22;2605;49.770;9.868;2023-08-06T10:30:27;17.30;99.90
5172;DHT22;2605;49.770;9.868;2023-08-06T10:32:54;17.30;99.90
5172;DHT22;2605;49.770;9.868;2023-08-06T10:35:36;17.30;99.90
5172;DHT22;2605;49.770;9.868;2023-08-06T10:38:21;17.40;99.90
5172;DHT22;2605;49.770;9.868;2023-08-06T10:43:32;17.40;99.90
5172;DHT22;2605;49.770;9.868;2023-08-06T10:46:01;17.70;99.90
5172;DHT22;2605;49.770;9.868;2023-08-06T10:48:31;18.10;99.90
5172;DHT22;2605;49.770;9.868;2023-08-06T10:50:58;18.30;99.90
5172;DHT22;2605;49.770;9.868;2023-08-06T10:53:24;18.00;99.90
5172;DHT22;2605;49.770;9.868;2023-08-06T10:55:50;17.80;99.90
5172;DHT22;2605;49.770;9.868;2023-08-06T10:58:16;18.00;99.90
5172;DHT22;2605;49.770;9.868;2023-08-06T11:00:42;17.90;99.90
5172;DHT22;2605;49.770;9.868;2023-08-06T11:03:08;17.90;99.90
5172;DHT22;2605;49.770;9.868;2023-08-06T11:05:34;17.80;99.90
5172;DHT22;2605;49.770;9.868;2023-08-06T11:08:00;17.70;99.90
5172;DHT22;2605;49.770;9.868;2023-08-06T11:10:26;17.90;99.90
5172;DHT22;2605;49.770;9.868;2023-08-06T11:12:54;18.20;99.90
5172;DHT22;2605;49.770;9.868;2023-08-06T11:15:20;18.50;99.90
5172;DHT22;2605;49.770;9.868;2023-08-06T11:17:46;18.30;99.90
5172;DHT22;2605;49.770;9.868;2023-08-06T11:20:12;18.10;99.90
5172;DHT22;2605;49.770;9.868;2023-08-06T11:22:38;17.90;99.90
5172;DHT22;2605;49.770;9.868;2023-08-06T11:25:05;17.80;99.90
5172;DHT22;2605;49.770;9.868;2023-08-06T11:27:31;18.20;99.90
5172;DHT22;2605;49.770;9.868;2023-08-06T11:29:57;18.30;99.90
5172;DHT22;2605;49.770;9.868;2023-08-06T11:32:22;18.60;99.90
5172;DHT22;2605;49.770;9.868;2023-08-06T11:34:48;18.60;99.90
5172;DHT22;2605;49.770;9.868;2023-08-06T11:37:13;19.00;99.90
5172;DHT22;2605;49.770;9.868;2023-08-06T11:39:46;19.40;99.90
5172;DHT22;2605;49.770;9.868;2023-08-06T11:42:12;19.80;99.90
5172;DHT22;2605;49.770;9.868;2023-08-06T11:44:37;20.00;99.90
5172;DHT22;2605;49.770;9.868;2023-08-06T11:47:04;19.20;99.90
5172;DHT22;2605;49.770;9.868;2023-08-06T11:49:57;18.60;99.90
5172;DHT22;2605;49.770;9.868;2023-08-06T11:52:23;17.90;99.90
5172;DHT22;2605;49.770;9.868;2023-08-06T11:55:06;17.30;99.90
5172;DHT22;2605;49.770;9.868;2023-08-06T11:57:34;16.70;99.90
5172;DHT22;2605;49.770;9.868;2023-08-06T12:00:08;16.40;99.90
5172;DHT22;2605;49.770;9.868;2023-08-06T12:02:34;16.30;99.90
5172;DHT22;2605;49.770;9.868;2023-08-06T12:05:17;16.50;99.90
5172;DHT22;2605;49.770;9.868;2023-08-06T12:07:54;17.00;99.90
5172;DHT22;2605;49.770;9.868;2023-08-06T12:10:21;17.60;99.90
5172;DHT22;2605;49.770;9.868;2023-08-06T12:12:47;17.70;99.90
5172;DHT22;2605;49.770;9.868;2023-08-06T12:15:13;18.00;99.90
5172;DHT22;2605;49.770;9.868;2023-08-06T12:17:39;18.10;99.90
5172;DHT22;2605;49.770;9.868;2023-08-06T12:20:06;18.10;99.90
5172;DHT22;2605;49.770;9.868;2023-08-06T12:22:32;17.90;99.90
5172;DHT22;2605;49.770;9.868;2023-08-06T12:25:01;17.60;99.90
5172;DHT22;2605;49.770;9.868;2023-08-06T12:27:27;16.90;99.90
5172;DHT22;2605;49.770;9.868;2023-08-06T12:29:53;16.80;99.90
5172;DHT22;2605;49.770;9.868;2023-08-06T12:32:18;16.80;99.90
5172;DHT22;2605;49.770;9.868;2023-08-06T12:34:44;16.50;99.90
5172;DHT22;2605;49.770;9.868;2023-08-06T12:37:10;16.50;99.90
5172;DHT22;2605;49.770;9.868;2023-08-06T12:39:36;16.10;99.90
5172;DHT22;2605;49.770;9.868;2023-08-06T12:42:03;16.00;99.90
5172;DHT22;2605;49.770;9.868;2023-08-06T12:44:29;15.80;99.90
5172;DHT22;2605;49.770;9.868;2023-08-06T12:46:55;15.80;99.90
5172;DHT22;2605;49.770;9.868;2023-08-06T12:49:21;15.80;99.90
5172;DHT22;2605;49.770;9.868;2023-08-06T12:51:47;15.70;99.90
5172;DHT22;2605;49.770;9.868;2023-08-06T12:54:13;15.60;99.90
5172;DHT22;2605;49.770;9.868;2023-08-06T12:56:39;15.30;99.90
5172;DHT22;2605;49.770;9.868;2023-08-06T12:59:04;15.00;99.90
5172;DHT22;2605;49.770;9.868;2023-08-06T13:01:30;14.90;99.90
5172;DHT22;2605;49.770;9.868;2023-08-06T13:03:55;14.80;99.90
5172;DHT22;2605;49.770;9.868;2023-08-06T13:06:21;14.90;99.90
5172;DHT22;2605;49.770;9.868;2023-08-06T13:08:46;14.80;99.90
5172;DHT22;2605;49.770;9.868;2023-08-06T13:11:14;14.80;99.90
5172;DHT22;2605;49.770;9.868;2023-08-06T13:13:40;14.80;99.90
5172;DHT22;2605;49.770;9.868;2023-08-06T13:16:05;14.80;99.90
5172;DHT22;2605;49.770;9.868;2023-08-06T13:18:31;14.80;99.90
5172;DHT22;2605;49.770;9.868;2023-08-06T13:20:56;14.70;99.90
5172;DHT22;2605;49.770;9.868;2023-08-06T13:23:22;14.50;99.90
5172;DHT22;2605;49.770;9.868;2023-08-06T13:25:47;14.20;99.90
5172;DHT22;2605;49.770;9.868;2023-08-06T13:28:13;14.10;99.90
5172;DHT22;2605;49.770;9.868;2023-08-06T13:30:41;14.10;99.90
5172;DHT22;2605;49.770;9.868;2023-08-06T13:33:08;14.20;99.90
5172;DHT22;2605;49.770;9.868;2023-08-06T13:35:34;14.20;99.90
5172;DHT22;2605;49.770;9.868;2023-08-06T13:37:59;14.20;99.90
5172;DHT22;2605;49.770;9.868;2023-08-06T13:40:24;14.10;99.90
5172;DHT22;2605;49.770;9.868;2023-08-06T13:42:53;14.00;99.90
5172;DHT22;2605;49.770;9.868;2023-08-06T13:45:18;14.10;99.90
5172;DHT22;2605;49.770;9.868;2023-08-06T13:47:44;14.10;99.90
5172;DHT22;2605;49.770;9.868;2023-08-06T13:50:12;14.10;99.90
5172;DHT22;2605;49.770;9.868;2023-08-06T13:52:38;14.00;99.90
5172;DHT22;2605;49.770;9.868;2023-08-06T13:55:04;14.00;99.90
5172;DHT22;2605;49.770;9.868;2023-08-06T13:57:30;14.00;99.90
5172;DHT22;2605;49.770;9.868;2023-08-06T13:59:56;14.00;99.90
5172;DHT22;2605;49.770;9.868;2023-08-06T14:02:22;14.00;99.90
5172;DHT22;2605;49.770;9.868;2023-08-06T14:04:48;14.00;99.90
5172;DHT22;2605;49.770;9.868;2023-08-06T14:07:13;13.90;99.90
5172;DHT22;2605;49.770;9.868;2023-08-06T14:09:39;13.80;99.90
5172;DHT22;2605;49.770;9.868;2023-08-06T14:12:05;13.80;99.90
5172;DHT22;2605;49.770;9.868;2023-08-06T14:14:31;13.70;99.90
5172;DHT22;2605;49.770;9.868;2023-08-06T14:16:57;13.70;99.90
5172;DHT22;2605;49.770;9.868;2023-08-06T14:19:23;13.80;99.90
5172;DHT22;2605;49.770;9.868;2023-08-06T14:21:49;13.70;99.90
5172;DHT22;2605;49.770;9.868;2023-08-06T14:24:14;13.80;99.90
5172;DHT22;2605;49.770;9.868;2023-08-06T14:26:40;14.00;99.90
5172;DHT22;2605;49.770;9.868;2023-08-06T14:29:06;14.00;99.90
5172;DHT22;2605;49.770;9.868;2023-08-06T14:31:31;13.90;99.90
5172;DHT22;2605;49.770;9.868;2023-08-06T14:33:57;13.90;99.90
5172;DHT22;2605;49.770;9.868;2023-08-06T14:36:22;13.90;99.90
5172;DHT22;2605;49.770;9.868;2023-08-06T14:38:48;13.90;99.90
5172;DHT22;2605;49.770;9.868;2023-08-06T14:41:13;14.00;99.90
5172;DHT22;2605;49.770;9.868;2023-08-06T14:43:39;14.10;99.90
5172;DHT22;2605;49.770;9.868;2023-08-06T14:46:04;14.20;99.90
5172;DHT22;2605;49.770;9.868;2023-08-06T14:48:30;14.30;99.90
5172;DHT22;2605;49.770;9.868;2023-08-06T14:50:56;14.60;99.90
5172;DHT22;2605;49.770;9.868;2023-08-06T14:53:22;14.80;99.90
5172;DHT22;2605;49.770;9.868;2023-08-06T14:55:47;15.20;99.90
5172;DHT22;2605;49.770;9.868;2023-08-06T14:58:13;15.40;99.90
5172;DHT22;2605;49.770;9.868;2023-08-06T15:00:38;15.70;99.90
5172;DHT22;2605;49.770;9.868;2023-08-06T15:03:04;15.70;99.90
5172;DHT22;2605;49.770;9.868;2023-08-06T15:05:29;15.50;99.90
5172;DHT22;2605;49.770;9.868;2023-08-06T15:07:55;15.50;99.90
5172;DHT22;2605;49.770;9.868;2023-08-06T15:10:20;15.20;99.90
5172;DHT22;2605;49.770;9.868;2023-08-06T15:12:46;14.80;99.90
5172;DHT22;2605;49.770;9.868;2023-08-06T15:15:12;14.60;99.90
5172;DHT22;2605;49.770;9.868;2023-08-06T15:17:37;14.60;99.90
5172;DHT22;2605;49.770;9.868;2023-08-06T15:20:03;14.70;99.90
5172;DHT22;2605;49.770;9.868;2023-08-06T15:22:29;14.80;99.90
5172;DHT22;2605;49.770;9.868;2023-08-06T15:24:59;14.90;99.90
5172;DHT22;2605;49.770;9.868;2023-08-06T15:27:24;15.00;99.90
5172;DHT22;2605;49.770;9.868;2023-08-06T15:29:50;15.10;99.90
5172;DHT22;2605;49.770;9.868;2023-08-06T15:32:15;15.10;99.90
5172;DHT22;2605;49.770;9.868;2023-08-06T15:34:41;15.00;99.90
5172;DHT22;2605;49.770;9.868;2023-08-06T15:37:06;15.10;99.90
5172;DHT22;2605;49.770;9.868;2023-08-06T15:39:33;15.30;99.90
5172;DHT22;2605;49.770;9.868;2023-08-06T15:41:59;15.20;99.90
5172;DHT22;2605;49.770;9.868;2023-08-06T15:44:24;15.40;99.90
5172;DHT22;2605;49.770;9.868;2023-08-06T15:46:50;15.20;99.90
5172;DHT22;2605;49.770;9.868;2023-08-06T15:49:15;15.10;99.90
5172;DHT22;2605;49.770;9.868;2023-08-06T15:51:41;15.10;99.90
5172;DHT22;2605;49.770;9.868;2023-08-06T15:54:07;15.10;99.90
5172;DHT22;2605;49.770;9.868;2023-08-06T15:56:32;15.00;99.90
5172;DHT22;2605;49.770;9.868;2023-08-06T15:59:02;14.90;99.90
5172;DHT22;2605;49.770;9.868;2023-08-06T16:01:43;14.70;99.90
5172;DHT22;2605;49.770;9.868;2023-08-06T16:04:09;14.60;99.90